createdAt,value
2022-10-01T00:00:25.119Z,25.81
2022-10-01T00:01:25.194Z,25.71
2022-10-01T00:02:25.261Z,25.62
2022-10-01T00:03:25.119Z,25.71
2022-10-01T00:04:25.121Z,25.53
2022-10-01T00:05:25.122Z,25.62
2022-10-01T00:06:25.139Z,25.63
2022-10-01T00:07:25.120Z,25.63
2022-10-01T00:08:25.121Z,25.73
2022-10-01T00:09:25.120Z,25.71
2022-10-01T00:10:25.121Z,25.62
2022-10-01T00:11:25.124Z,25.71
2022-10-01T00:12:25.122Z,25.52
2022-10-01T00:13:25.121Z,25.52
2022-10-01T00:14:25.119Z,25.53
2022-10-01T00:15:25.124Z,25.52
2022-10-01T00:16:25.173Z,25.62
2022-10-01T00:17:25.122Z,25.71
2022-10-01T00:18:25.119Z,25.52
2022-10-01T00:19:25.120Z,25.52
2022-10-01T00:20:25.120Z,25.62
2022-10-01T00:21:25.126Z,25.52
2022-10-01T00:22:25.141Z,25.52
2022-10-01T00:23:25.122Z,25.71
2022-10-01T00:24:25.120Z,25.62
2022-10-01T00:25:25.120Z,25.52
2022-10-01T00:26:25.120Z,25.71
2022-10-01T00:27:25.121Z,25.62
2022-10-01T00:28:25.229Z,25.71
2022-10-01T00:29:25.121Z,25.71
2022-10-01T00:30:25.119Z,25.71
2022-10-01T00:31:25.239Z,25.71
2022-10-01T00:32:25.120Z,25.71
2022-10-01T00:33:25.123Z,25.71
2022-10-01T00:34:25.119Z,25.71
2022-10-01T00:35:25.120Z,25.71
2022-10-01T00:36:25.121Z,25.62
2022-10-01T00:37:25.122Z,25.71
2022-10-01T00:38:25.142Z,25.62
2022-10-01T00:39:25.123Z,25.62
2022-10-01T00:40:25.120Z,25.63
2022-10-01T00:41:25.122Z,25.62
2022-10-01T00:42:25.120Z,25.52
2022-10-01T00:43:25.122Z,25.81
2022-10-01T00:44:25.121Z,25.52
2022-10-01T00:45:25.140Z,25.71
2022-10-01T00:46:25.120Z,25.71
2022-10-01T00:47:25.123Z,25.52
2022-10-01T00:48:25.121Z,25.62
2022-10-01T00:49:25.122Z,25.52
2022-10-01T00:50:25.119Z,25.71
2022-10-01T00:51:25.120Z,25.71
2022-10-01T00:52:25.123Z,25.71
2022-10-01T00:53:25.121Z,25.62
2022-10-01T00:54:25.145Z,25.71
2022-10-01T00:55:25.122Z,25.71
2022-10-01T00:56:25.122Z,25.71
2022-10-01T00:57:25.127Z,25.62
2022-10-01T00:58:25.124Z,25.62
2022-10-01T00:59:25.123Z,25.62
2022-10-01T01:00:25.127Z,25.62
2022-10-01T01:01:25.194Z,25.62
2022-10-01T01:02:25.252Z,25.62
2022-10-01T01:03:25.121Z,25.71
2022-10-01T01:04:25.124Z,25.71
2022-10-01T01:05:25.122Z,25.71
2022-10-01T01:06:25.122Z,25.62
2022-10-01T01:07:25.121Z,25.62
2022-10-01T01:08:25.124Z,25.71
2022-10-01T01:09:25.123Z,25.71
2022-10-01T01:10:25.144Z,25.71
2022-10-01T01:11:25.121Z,25.71
2022-10-01T01:12:25.128Z,25.71
2022-10-01T01:13:25.122Z,25.73
2022-10-01T01:14:25.125Z,25.81
2022-10-01T01:15:25.132Z,25.71
2022-10-01T01:16:25.239Z,25.81
2022-10-01T01:17:25.132Z,25.71
2022-10-01T01:18:25.122Z,25.81
2022-10-01T01:19:25.122Z,25.90
2022-10-01T01:20:25.124Z,25.81
2022-10-01T01:21:25.123Z,25.90
2022-10-01T01:22:25.121Z,25.71
2022-10-01T01:23:25.122Z,25.81
2022-10-01T01:24:25.123Z,25.81
2022-10-01T01:25:25.122Z,25.90
2022-10-01T01:26:25.145Z,25.90
2022-10-01T01:27:25.121Z,25.90
2022-10-01T01:28:25.182Z,25.81
2022-10-01T01:29:25.122Z,25.52
2022-10-01T01:30:25.124Z,25.81
2022-10-01T01:31:25.192Z,25.81
2022-10-01T01:32:25.122Z,25.81
2022-10-01T01:33:25.127Z,25.52
2022-10-01T01:34:25.122Z,25.81
2022-10-01T01:35:25.126Z,25.81
2022-10-01T01:36:25.123Z,25.52
2022-10-01T01:37:25.121Z,25.52
2022-10-01T01:38:25.122Z,25.42
2022-10-01T01:39:25.123Z,25.52
2022-10-01T01:40:25.123Z,25.52
2022-10-01T01:41:25.122Z,25.42
2022-10-01T01:42:25.144Z,25.52
2022-10-01T01:43:25.121Z,25.42
2022-10-01T01:44:25.123Z,25.42
2022-10-01T01:45:25.130Z,25.42
2022-10-01T01:46:25.123Z,25.32
2022-10-01T01:47:25.123Z,25.32
2022-10-01T01:48:25.124Z,25.42
2022-10-01T01:49:25.122Z,25.52
2022-10-01T01:50:25.125Z,25.52
2022-10-01T01:51:25.124Z,25.23
2022-10-01T01:52:25.123Z,25.24
2022-10-01T01:53:25.124Z,25.42
2022-10-01T01:54:25.122Z,25.32
2022-10-01T01:55:25.126Z,25.32
2022-10-01T01:56:25.123Z,25.23
2022-10-01T01:57:25.122Z,25.23
2022-10-01T01:58:25.142Z,25.42
2022-10-01T01:59:25.121Z,25.23
2022-10-01T02:00:25.125Z,25.23
2022-10-01T02:01:25.162Z,25.32
2022-10-01T02:02:25.147Z,25.32
2022-10-01T02:03:25.121Z,25.24
2022-10-01T02:04:25.122Z,25.23
2022-10-01T02:05:25.121Z,25.23
2022-10-01T02:06:25.128Z,25.32
2022-10-01T02:07:25.123Z,25.32
2022-10-01T02:08:25.373Z,25.23
2022-10-01T02:09:25.122Z,25.32
2022-10-01T02:10:25.122Z,25.32
2022-10-01T02:11:25.124Z,25.32
2022-10-01T02:12:25.124Z,25.23
2022-10-01T02:13:25.123Z,25.23
2022-10-01T02:14:25.149Z,25.32
2022-10-01T02:15:25.123Z,25.32
2022-10-01T02:16:25.184Z,25.23
2022-10-01T02:17:25.124Z,25.32
2022-10-01T02:18:25.122Z,25.23
2022-10-01T02:19:25.122Z,25.23
2022-10-01T02:20:25.123Z,25.32
2022-10-01T02:21:25.122Z,25.23
2022-10-01T02:22:25.122Z,25.32
2022-10-01T02:23:25.121Z,25.32
2022-10-01T02:24:25.124Z,25.23
2022-10-01T02:25:25.122Z,25.32
2022-10-01T02:26:25.123Z,25.13
2022-10-01T02:27:25.123Z,25.23
2022-10-01T02:28:25.148Z,25.13
2022-10-01T02:29:25.132Z,25.13
2022-10-01T02:30:25.144Z,25.13
2022-10-01T02:31:25.215Z,25.23
2022-10-01T02:32:25.122Z,25.13
2022-10-01T02:33:25.121Z,25.13
2022-10-01T02:34:25.125Z,25.13
2022-10-01T02:35:25.122Z,25.23
2022-10-01T02:36:25.123Z,25.13
2022-10-01T02:37:25.121Z,25.23
2022-10-01T02:38:25.122Z,25.23
2022-10-01T02:39:25.121Z,25.13
2022-10-01T02:40:25.123Z,25.23
2022-10-01T02:41:25.122Z,25.13
2022-10-01T02:42:25.122Z,25.13
2022-10-01T02:43:25.122Z,25.03
2022-10-01T02:44:25.122Z,25.13
2022-10-01T02:45:25.123Z,25.23
2022-10-01T02:46:25.144Z,25.13
2022-10-01T02:47:25.124Z,25.13
2022-10-01T02:48:25.123Z,25.23
2022-10-01T02:49:29.793Z,25.13
2022-10-01T02:50:25.122Z,25.13
2022-10-01T02:51:25.122Z,25.23
2022-10-01T02:52:25.124Z,25.23
2022-10-01T02:53:25.123Z,25.03
2022-10-01T02:54:25.122Z,25.03
2022-10-01T02:55:25.121Z,25.32
2022-10-01T02:56:25.123Z,25.03
2022-10-01T02:57:25.124Z,24.93
2022-10-01T02:58:25.122Z,25.03
2022-10-01T02:59:25.122Z,24.93
2022-10-01T03:00:25.131Z,25.03
2022-10-01T03:01:25.228Z,24.93
2022-10-01T03:02:25.207Z,25.03
2022-10-01T03:03:25.121Z,24.93
2022-10-01T03:04:25.122Z,25.03
2022-10-01T03:05:25.125Z,25.03
2022-10-01T03:06:25.123Z,25.03
2022-10-01T03:07:25.124Z,25.03
2022-10-01T03:08:25.132Z,25.03
2022-10-01T03:09:25.121Z,25.23
2022-10-01T03:10:25.129Z,25.23
2022-10-01T03:11:25.125Z,25.13
2022-10-01T03:12:25.129Z,25.03
2022-10-01T03:13:25.122Z,25.13
2022-10-01T03:14:25.123Z,25.03
2022-10-01T03:15:25.126Z,25.13
2022-10-01T03:16:25.183Z,25.13
2022-10-01T03:17:25.122Z,24.93
2022-10-01T03:18:25.143Z,24.84
2022-10-01T03:19:25.120Z,24.93
2022-10-01T03:20:25.121Z,24.93
2022-10-01T03:21:25.135Z,25.13
2022-10-01T03:22:25.122Z,25.13
2022-10-01T03:23:25.122Z,25.03
2022-10-01T03:24:25.123Z,24.93
2022-10-01T03:25:25.121Z,24.93
2022-10-01T03:26:25.121Z,24.93
2022-10-01T03:27:25.122Z,25.13
2022-10-01T03:28:25.159Z,25.03
2022-10-01T03:29:25.122Z,24.93
2022-10-01T03:30:25.124Z,24.93
2022-10-01T03:31:25.174Z,25.03
2022-10-01T03:32:25.123Z,25.03
2022-10-01T03:33:25.122Z,25.13
2022-10-01T03:34:25.145Z,25.13
2022-10-01T03:35:25.121Z,24.93
2022-10-01T03:36:25.123Z,25.03
2022-10-01T03:37:25.122Z,25.03
2022-10-01T03:38:25.124Z,25.03
2022-10-01T03:39:25.123Z,25.03
2022-10-01T03:40:25.123Z,25.03
2022-10-01T03:41:25.123Z,24.74
2022-10-01T03:42:25.122Z,24.84
2022-10-01T03:43:25.122Z,24.84
2022-10-01T03:44:25.123Z,24.84
2022-10-01T03:45:25.225Z,24.93
2022-10-01T03:46:25.122Z,24.84
2022-10-01T03:47:25.122Z,24.74
2022-10-01T03:48:25.125Z,24.84
2022-10-01T03:49:25.123Z,24.84
2022-10-01T03:50:25.142Z,24.93
2022-10-01T03:51:25.123Z,24.84
2022-10-01T03:52:25.124Z,24.93
2022-10-01T03:53:25.122Z,24.84
2022-10-01T03:54:25.124Z,24.93
2022-10-01T03:55:25.127Z,24.74
2022-10-01T03:56:25.122Z,24.74
2022-10-01T03:57:25.122Z,24.84
2022-10-01T03:58:25.122Z,24.74
2022-10-01T03:59:25.122Z,24.84
2022-10-01T04:00:25.123Z,24.74
2022-10-01T04:01:25.175Z,24.84
2022-10-01T04:02:25.286Z,24.74
2022-10-01T04:03:25.122Z,24.84
2022-10-01T04:04:25.123Z,24.84
2022-10-01T04:05:25.122Z,24.93
2022-10-01T04:06:25.146Z,24.76
2022-10-01T04:07:25.121Z,24.84
2022-10-01T04:08:25.123Z,24.84
2022-10-01T04:09:25.122Z,24.84
2022-10-01T04:10:25.121Z,24.74
2022-10-01T04:11:25.122Z,24.84
2022-10-01T04:12:25.124Z,24.84
2022-10-01T04:13:25.123Z,24.65
2022-10-01T04:14:25.122Z,24.65
2022-10-01T04:15:25.126Z,24.74
2022-10-01T04:16:25.319Z,24.84
2022-10-01T04:17:25.121Z,24.74
2022-10-01T04:18:25.121Z,24.74
2022-10-01T04:19:25.122Z,24.84
2022-10-01T04:20:25.122Z,24.84
2022-10-01T04:21:25.134Z,24.84
2022-10-01T04:22:25.142Z,24.74
2022-10-01T04:23:25.122Z,24.84
2022-10-01T04:24:25.126Z,24.74
2022-10-01T04:25:25.122Z,24.65
2022-10-01T04:26:25.128Z,24.65
2022-10-01T04:27:25.121Z,24.65
2022-10-01T04:28:25.186Z,24.35
2022-10-01T04:29:25.126Z,24.65
2022-10-01T04:30:25.127Z,24.35
2022-10-01T04:31:25.303Z,24.35
2022-10-01T04:32:25.122Z,24.37
2022-10-01T04:33:25.122Z,24.35
2022-10-01T04:34:25.122Z,24.65
2022-10-01T04:35:25.126Z,24.26
2022-10-01T04:36:25.133Z,24.74
2022-10-01T04:37:25.123Z,24.45
2022-10-01T04:38:25.142Z,24.35
2022-10-01T04:39:25.121Z,24.55
2022-10-01T04:40:25.122Z,24.55
2022-10-01T04:41:25.123Z,24.35
2022-10-01T04:42:25.123Z,24.35
2022-10-01T04:43:25.121Z,24.45
2022-10-01T04:44:25.122Z,24.26
2022-10-01T04:45:25.133Z,24.26
2022-10-01T04:46:25.253Z,24.26
2022-10-01T04:47:25.122Z,24.16
2022-10-01T04:48:25.122Z,24.35
2022-10-01T04:49:25.122Z,24.45
2022-10-01T04:50:25.123Z,24.35
2022-10-01T04:51:25.121Z,24.35
2022-10-01T04:52:25.123Z,24.45
2022-10-01T04:53:25.123Z,24.35
2022-10-01T04:54:25.141Z,24.55
2022-10-01T04:55:25.122Z,24.45
2022-10-01T04:56:25.122Z,24.45
2022-10-01T04:57:25.122Z,24.45
2022-10-01T04:58:25.126Z,24.55
2022-10-01T04:59:25.122Z,24.45
2022-10-01T05:00:25.121Z,24.55
2022-10-01T05:01:25.245Z,24.55
2022-10-01T05:02:25.170Z,24.55
2022-10-01T05:03:25.121Z,24.55
2022-10-01T05:04:25.122Z,24.45
2022-10-01T05:05:25.130Z,24.45
2022-10-01T05:06:25.121Z,24.55
2022-10-01T05:07:25.123Z,24.65
2022-10-01T05:08:25.120Z,24.55
2022-10-01T05:09:25.121Z,24.55
2022-10-01T05:10:25.143Z,24.55
2022-10-01T05:11:25.121Z,24.65
2022-10-01T05:12:25.122Z,24.65
2022-10-01T05:13:25.126Z,24.55
2022-10-01T05:14:25.121Z,24.55
2022-10-01T05:15:25.121Z,24.65
2022-10-01T05:16:25.233Z,24.65
2022-10-01T05:17:25.122Z,24.65
2022-10-01T05:18:25.240Z,24.65
2022-10-01T05:19:27.944Z,24.55
2022-10-01T05:20:25.120Z,24.55
2022-10-01T05:21:25.122Z,24.65
2022-10-01T05:22:25.119Z,24.74
2022-10-01T05:23:25.123Z,24.74
2022-10-01T05:24:25.121Z,24.74
2022-10-01T05:25:25.121Z,24.74
2022-10-01T05:26:25.139Z,24.74
2022-10-01T05:27:25.121Z,24.74
2022-10-01T05:28:25.171Z,24.65
2022-10-01T05:29:25.126Z,24.65
2022-10-01T05:30:25.121Z,24.65
2022-10-01T05:31:25.180Z,24.65
2022-10-01T05:32:25.120Z,24.55
2022-10-01T05:33:25.125Z,24.65
2022-10-01T05:34:25.120Z,24.45
2022-10-01T05:35:25.126Z,24.55
2022-10-01T05:36:25.119Z,24.55
2022-10-01T05:37:25.121Z,24.45
2022-10-01T05:38:25.120Z,24.55
2022-10-01T05:39:25.121Z,24.45
2022-10-01T05:40:25.121Z,24.45
2022-10-01T05:41:25.121Z,24.45
2022-10-01T05:42:25.145Z,24.26
2022-10-01T05:43:25.120Z,24.35
2022-10-01T05:44:25.122Z,24.45
2022-10-01T05:45:25.187Z,24.46
2022-10-01T05:46:25.120Z,24.26
2022-10-01T05:47:25.121Z,24.45
2022-10-01T05:48:25.120Z,24.35
2022-10-01T05:49:25.125Z,24.35
2022-10-01T05:50:25.120Z,24.35
2022-10-01T05:51:25.122Z,24.55
2022-10-01T05:52:25.120Z,24.16
2022-10-01T05:53:25.121Z,24.45
2022-10-01T05:54:25.122Z,24.16
2022-10-01T05:55:25.121Z,24.16
2022-10-01T05:56:25.122Z,24.26
2022-10-01T05:57:25.122Z,24.26
2022-10-01T05:58:25.143Z,24.16
2022-10-01T05:59:28.463Z,24.16
2022-10-01T06:00:25.122Z,24.26
2022-10-01T06:01:25.121Z,24.26
2022-10-01T06:02:25.324Z,24.26
2022-10-01T06:03:25.123Z,24.26
2022-10-01T06:04:25.122Z,24.16
2022-10-01T06:05:25.122Z,24.16
2022-10-01T06:06:25.120Z,24.26
2022-10-01T06:07:25.122Z,24.35
2022-10-01T06:08:25.121Z,24.26
2022-10-01T06:09:25.121Z,24.16
2022-10-01T06:10:25.122Z,24.45
2022-10-01T06:11:25.123Z,24.16
2022-10-01T06:12:25.121Z,24.06
2022-10-01T06:13:25.126Z,24.35
2022-10-01T06:14:25.141Z,24.06
2022-10-01T06:15:25.128Z,24.16
2022-10-01T06:16:25.145Z,24.26
2022-10-01T06:17:25.121Z,24.06
2022-10-01T06:18:25.119Z,24.06
2022-10-01T06:19:25.121Z,24.06
2022-10-01T06:20:25.121Z,24.45
2022-10-01T06:21:25.121Z,24.06
2022-10-01T06:22:25.120Z,24.45
2022-10-01T06:23:25.120Z,24.26
2022-10-01T06:24:25.120Z,24.06
2022-10-01T06:25:25.121Z,23.68
2022-10-01T06:26:25.117Z,23.68
2022-10-01T06:27:25.121Z,24.35
2022-10-01T06:28:25.167Z,24.35
2022-10-01T06:29:25.121Z,24.26
2022-10-01T06:30:25.139Z,24.26
2022-10-01T06:31:25.261Z,24.35
2022-10-01T06:32:25.122Z,24.35
2022-10-01T06:33:25.121Z,24.16
2022-10-01T06:34:25.118Z,24.06
2022-10-01T06:35:25.119Z,24.35
2022-10-01T06:36:25.119Z,24.35
2022-10-01T06:37:25.121Z,24.26
2022-10-01T06:38:25.120Z,24.26
2022-10-01T06:39:25.120Z,24.55
2022-10-01T06:40:25.121Z,24.06
2022-10-01T06:41:25.120Z,24.35
2022-10-01T06:42:25.117Z,24.35
2022-10-01T06:43:25.123Z,24.35
2022-10-01T06:44:25.119Z,24.06
2022-10-01T06:45:25.120Z,24.35
2022-10-01T06:46:25.139Z,24.06
2022-10-01T06:47:25.118Z,24.26
2022-10-01T06:48:25.120Z,24.06
2022-10-01T06:49:25.121Z,24.16
2022-10-01T06:50:25.117Z,24.06
2022-10-01T06:51:25.119Z,24.06
2022-10-01T06:52:25.119Z,24.26
2022-10-01T06:53:25.119Z,24.26
2022-10-01T06:54:25.119Z,24.26
2022-10-01T06:55:25.119Z,24.45
2022-10-01T06:56:25.118Z,24.45
2022-10-01T06:57:25.119Z,24.26
2022-10-01T06:58:25.119Z,24.26
2022-10-01T06:59:25.120Z,24.35
2022-10-01T07:00:25.161Z,24.26
2022-10-01T07:01:25.180Z,24.26
2022-10-01T07:02:25.258Z,24.26
2022-10-01T07:03:25.120Z,24.45
2022-10-01T07:04:25.119Z,24.35
2022-10-01T07:05:25.120Z,24.26
2022-10-01T07:06:25.119Z,24.35
2022-10-01T07:07:29.370Z,24.45
2022-10-01T07:08:25.120Z,24.35
2022-10-01T07:09:25.121Z,24.35
2022-10-01T07:10:25.161Z,24.35
2022-10-01T07:11:25.118Z,24.35
2022-10-01T07:12:25.117Z,24.45
2022-10-01T07:13:25.119Z,24.35
2022-10-01T07:14:25.119Z,24.35
2022-10-01T07:15:25.118Z,24.35
2022-10-01T07:16:25.160Z,24.45
2022-10-01T07:17:25.120Z,24.26
2022-10-01T07:18:25.138Z,24.45
2022-10-01T07:19:25.119Z,24.06
2022-10-01T07:20:25.119Z,24.45
2022-10-01T07:21:25.119Z,24.06
2022-10-01T07:22:25.117Z,24.45
2022-10-01T07:23:25.121Z,24.16
2022-10-01T07:24:25.119Z,23.96
2022-10-01T07:25:25.120Z,24.06
2022-10-01T07:26:25.118Z,24.45
2022-10-01T07:27:25.119Z,24.06
2022-10-01T07:28:25.149Z,24.35
2022-10-01T07:29:25.122Z,23.96
2022-10-01T07:30:25.118Z,24.06
2022-10-01T07:31:25.162Z,24.06
2022-10-01T07:32:25.117Z,24.06
2022-10-01T07:33:25.132Z,23.96
2022-10-01T07:34:25.137Z,23.96
2022-10-01T07:35:25.120Z,23.96
2022-10-01T07:36:25.131Z,24.06
2022-10-01T07:37:25.118Z,23.96
2022-10-01T07:38:25.116Z,24.06
2022-10-01T07:39:25.118Z,24.16
2022-10-01T07:40:25.117Z,23.96
2022-10-01T07:41:25.121Z,24.16
2022-10-01T07:42:25.117Z,23.96
2022-10-01T07:43:25.117Z,23.96
2022-10-01T07:44:25.117Z,24.16
2022-10-01T07:45:25.121Z,24.06
2022-10-01T07:46:25.116Z,24.16
2022-10-01T07:47:25.119Z,23.96
2022-10-01T07:48:25.117Z,24.06
2022-10-01T07:49:25.125Z,24.45
2022-10-01T07:50:25.140Z,24.35
2022-10-01T07:51:25.118Z,24.06
2022-10-01T07:52:25.120Z,23.96
2022-10-01T07:53:25.128Z,24.06
2022-10-01T07:54:25.116Z,24.06
2022-10-01T07:55:25.121Z,24.06
2022-10-01T07:56:25.117Z,24.45
2022-10-01T07:57:25.118Z,24.06
2022-10-01T07:58:25.116Z,24.06
2022-10-01T07:59:25.118Z,24.06
2022-10-01T08:00:25.124Z,24.45
2022-10-01T08:01:25.210Z,24.26
2022-10-01T08:02:25.138Z,24.06
2022-10-01T08:03:25.118Z,24.45
2022-10-01T08:04:25.116Z,24.16
2022-10-01T08:05:25.119Z,24.45
2022-10-01T08:06:25.811Z,23.96
2022-10-01T08:07:25.119Z,24.26
2022-10-01T08:08:25.119Z,23.87
2022-10-01T08:09:25.118Z,24.26
2022-10-01T08:10:25.127Z,24.16
2022-10-01T08:11:25.123Z,24.35
2022-10-01T08:12:25.120Z,24.35
2022-10-01T08:13:25.139Z,24.35
2022-10-01T08:14:25.116Z,24.35
2022-10-01T08:15:25.120Z,24.16
2022-10-01T08:16:25.150Z,24.35
2022-10-01T08:17:29.329Z,24.45
2022-10-01T08:18:25.116Z,24.26
2022-10-01T08:19:25.117Z,24.26
2022-10-01T08:20:25.118Z,24.16
2022-10-01T08:21:25.122Z,24.35
2022-10-01T08:22:25.139Z,24.06
2022-10-01T08:23:25.119Z,24.06
2022-10-01T08:24:25.119Z,24.35
2022-10-01T08:25:25.118Z,24.35
2022-10-01T08:26:25.116Z,24.26
2022-10-01T08:27:25.128Z,24.26
2022-10-01T08:28:25.159Z,24.16
2022-10-01T08:29:25.118Z,23.96
2022-10-01T08:30:25.115Z,24.45
2022-10-01T08:31:25.194Z,24.35
2022-10-01T08:32:25.117Z,24.06
2022-10-01T08:33:25.119Z,24.16
2022-10-01T08:34:25.117Z,24.06
2022-10-01T08:35:25.123Z,24.16
2022-10-01T08:36:25.116Z,24.35
2022-10-01T08:37:25.117Z,24.26
2022-10-01T08:38:25.136Z,24.26
2022-10-01T08:39:25.118Z,24.26
2022-10-01T08:40:25.123Z,24.16
2022-10-01T08:41:25.117Z,24.26
2022-10-01T08:42:25.117Z,24.26
2022-10-01T08:43:25.117Z,24.16
2022-10-01T08:44:25.116Z,24.26
2022-10-01T08:45:25.120Z,24.26
2022-10-01T08:46:25.116Z,24.45
2022-10-01T08:47:25.117Z,24.16
2022-10-01T08:48:25.117Z,24.16
2022-10-01T08:49:25.119Z,24.45
2022-10-01T08:50:25.116Z,24.35
2022-10-01T08:51:25.116Z,24.45
2022-10-01T08:52:25.122Z,24.35
2022-10-01T08:53:25.117Z,24.35
2022-10-01T08:54:25.140Z,24.65
2022-10-01T08:55:25.118Z,24.45
2022-10-01T08:56:25.116Z,24.55
2022-10-01T08:57:25.123Z,24.55
2022-10-01T08:58:25.116Z,24.35
2022-10-01T08:59:27.432Z,24.55
2022-10-01T09:00:25.116Z,24.55
2022-10-01T09:01:25.150Z,24.45
2022-10-01T09:02:25.114Z,24.74
2022-10-01T09:03:25.118Z,24.65
2022-10-01T09:04:25.174Z,24.74
2022-10-01T09:05:25.120Z,24.55
2022-10-01T09:06:25.116Z,24.55
2022-10-01T09:07:25.117Z,24.55
2022-10-01T09:08:25.116Z,24.55
2022-10-01T09:09:25.116Z,24.55
2022-10-01T09:10:25.135Z,24.55
2022-10-01T09:11:25.116Z,24.65
2022-10-01T09:12:25.115Z,24.55
2022-10-01T09:13:25.119Z,24.55
2022-10-01T09:14:25.116Z,24.65
2022-10-01T09:15:25.116Z,24.74
2022-10-01T09:16:25.183Z,24.55
2022-10-01T09:17:25.117Z,24.55
2022-10-01T09:18:25.115Z,24.55
2022-10-01T09:19:25.116Z,24.65
2022-10-01T09:20:25.142Z,24.65
2022-10-01T09:21:25.117Z,24.55
2022-10-01T09:22:25.116Z,24.55
2022-10-01T09:23:25.115Z,24.55
2022-10-01T09:24:25.116Z,24.55
2022-10-01T09:25:25.120Z,24.65
2022-10-01T09:26:25.915Z,24.55
2022-10-01T09:27:25.114Z,24.45
2022-10-01T09:28:25.183Z,24.45
2022-10-01T09:29:25.115Z,24.26
2022-10-01T09:30:25.117Z,24.45
2022-10-01T09:31:25.159Z,24.45
2022-10-01T09:32:25.116Z,24.35
2022-10-01T09:33:25.116Z,24.16
2022-10-01T09:34:25.116Z,24.35
2022-10-01T09:35:25.117Z,24.26
2022-10-01T09:36:25.116Z,24.45
2022-10-01T09:37:25.116Z,24.35
2022-10-01T09:38:25.116Z,24.35
2022-10-01T09:39:25.114Z,24.26
2022-10-01T09:40:25.115Z,24.55
2022-10-01T09:41:25.114Z,24.55
2022-10-01T09:42:25.138Z,24.26
2022-10-01T09:43:25.116Z,24.35
2022-10-01T09:44:25.116Z,24.65
2022-10-01T09:45:25.311Z,24.65
2022-10-01T09:46:25.115Z,24.65
2022-10-01T09:47:25.114Z,24.65
2022-10-01T09:48:25.116Z,24.65
2022-10-01T09:49:25.116Z,24.65
2022-10-01T09:50:25.116Z,24.74
2022-10-01T09:51:25.114Z,24.65
2022-10-01T09:52:25.116Z,24.74
2022-10-01T09:53:25.115Z,24.65
2022-10-01T09:54:25.115Z,24.74
2022-10-01T09:55:25.118Z,24.45
2022-10-01T09:56:25.116Z,24.84
2022-10-01T09:57:25.114Z,24.65
2022-10-01T09:58:25.148Z,24.74
2022-10-01T09:59:25.115Z,24.84
2022-10-01T10:00:25.138Z,24.84
2022-10-01T10:01:25.115Z,24.74
2022-10-01T10:02:25.294Z,24.85
2022-10-01T10:03:25.256Z,24.74
2022-10-01T10:04:25.118Z,24.84
2022-10-01T10:05:25.126Z,24.84
2022-10-01T10:06:25.116Z,24.84
2022-10-01T10:07:25.114Z,24.74
2022-10-01T10:08:25.116Z,24.84
2022-10-01T10:09:25.115Z,24.74
2022-10-01T10:10:26.051Z,24.74
2022-10-01T10:11:25.114Z,24.84
2022-10-01T10:12:25.115Z,24.84
2022-10-01T10:13:25.114Z,24.74
2022-10-01T10:14:25.136Z,24.93
2022-10-01T10:15:25.115Z,24.93
2022-10-01T10:16:25.162Z,24.74
2022-10-01T10:17:25.117Z,24.74
2022-10-01T10:18:25.115Z,24.93
2022-10-01T10:19:25.115Z,24.93
2022-10-01T10:20:25.123Z,24.84
2022-10-01T10:21:25.114Z,24.93
2022-10-01T10:22:25.152Z,24.93
2022-10-01T10:23:25.117Z,24.93
2022-10-01T10:24:25.118Z,24.84
2022-10-01T10:25:25.118Z,24.93
2022-10-01T10:26:25.114Z,24.93
2022-10-01T10:27:25.114Z,24.84
2022-10-01T10:28:25.195Z,25.03
2022-10-01T10:29:25.115Z,25.03
2022-10-01T10:30:25.142Z,24.74
2022-10-01T10:31:25.174Z,25.03
2022-10-01T10:32:25.115Z,24.74
2022-10-01T10:33:25.115Z,24.74
2022-10-01T10:34:25.114Z,25.03
2022-10-01T10:35:25.114Z,25.03
2022-10-01T10:36:25.115Z,24.84
2022-10-01T10:37:25.114Z,25.03
2022-10-01T10:38:25.115Z,25.03
2022-10-01T10:39:25.113Z,25.03
2022-10-01T10:40:29.228Z,25.03
2022-10-01T10:41:25.115Z,25.03
2022-10-01T10:42:25.116Z,25.03
2022-10-01T10:43:25.113Z,24.93
2022-10-01T10:44:25.114Z,25.03
2022-10-01T10:45:25.115Z,25.03
2022-10-01T10:46:25.238Z,24.93
2022-10-01T10:47:25.113Z,25.03
2022-10-01T10:48:25.114Z,24.93
2022-10-01T10:49:25.114Z,24.93
2022-10-01T10:50:25.115Z,25.03
2022-10-01T10:51:25.316Z,25.03
2022-10-01T10:52:25.116Z,24.84
2022-10-01T10:53:25.114Z,25.13
2022-10-01T10:54:25.113Z,25.13
2022-10-01T10:55:25.120Z,25.13
2022-10-01T10:56:25.115Z,24.93
2022-10-01T10:57:25.115Z,25.03
2022-10-01T10:58:25.113Z,25.03
2022-10-01T10:59:25.113Z,24.93
2022-10-01T11:00:25.115Z,25.03
2022-10-01T11:01:25.204Z,24.93
2022-10-01T11:02:25.163Z,25.13
2022-10-01T11:03:25.113Z,25.03
2022-10-01T11:04:25.115Z,24.93
2022-10-01T11:05:25.113Z,25.03
2022-10-01T11:06:25.116Z,25.13
2022-10-01T11:07:25.112Z,25.03
2022-10-01T11:08:25.115Z,25.03
2022-10-01T11:09:25.113Z,25.03
2022-10-01T11:10:25.114Z,25.03
2022-10-01T11:11:25.117Z,25.03
2022-10-01T11:12:25.116Z,25.03
2022-10-01T11:13:25.115Z,25.03
2022-10-01T11:14:25.118Z,25.03
2022-10-01T11:15:25.114Z,25.03
2022-10-01T11:16:25.162Z,24.93
2022-10-01T11:17:25.114Z,24.93
2022-10-01T11:18:25.137Z,25.03
2022-10-01T11:19:25.113Z,25.03
2022-10-01T11:20:25.114Z,25.03
2022-10-01T11:21:25.113Z,25.03
2022-10-01T11:22:25.113Z,25.03
2022-10-01T11:23:25.115Z,25.03
2022-10-01T11:24:25.114Z,25.03
2022-10-01T11:25:25.114Z,25.03
2022-10-01T11:26:25.113Z,25.03
2022-10-01T11:27:25.114Z,25.03
2022-10-01T11:28:25.153Z,25.03
2022-10-01T11:29:25.114Z,25.03
2022-10-01T11:30:25.113Z,25.03
2022-10-01T11:31:25.222Z,25.03
2022-10-01T11:32:25.118Z,25.03
2022-10-01T11:33:25.121Z,25.03
2022-10-01T11:34:25.137Z,24.84
2022-10-01T11:35:25.113Z,25.03
2022-10-01T11:36:25.114Z,25.03
2022-10-01T11:37:25.112Z,25.03
2022-10-01T11:38:25.114Z,25.03
2022-10-01T11:39:25.114Z,25.03
2022-10-01T11:40:25.114Z,25.03
2022-10-01T11:41:25.113Z,25.13
2022-10-01T11:42:25.113Z,24.84
2022-10-01T11:43:25.113Z,25.13
2022-10-01T11:44:25.115Z,25.03
2022-10-01T11:45:25.113Z,25.03
2022-10-01T11:46:25.167Z,25.03
2022-10-01T11:47:25.112Z,25.03
2022-10-01T11:48:25.113Z,25.03
2022-10-01T11:49:25.115Z,25.03
2022-10-01T11:50:25.133Z,25.03
2022-10-01T11:51:25.112Z,24.74
2022-10-01T11:52:25.113Z,25.03
2022-10-01T11:53:25.112Z,24.74
2022-10-01T11:54:25.115Z,24.84
2022-10-01T11:55:25.114Z,25.03
2022-10-01T11:56:25.114Z,24.84
2022-10-01T11:57:25.113Z,25.03
2022-10-01T11:58:25.112Z,25.03
2022-10-01T11:59:25.112Z,24.74
2022-10-01T12:00:27.342Z,24.84
2022-10-01T12:01:25.123Z,24.84
2022-10-01T12:02:25.162Z,24.84
2022-10-01T12:03:25.112Z,24.93
2022-10-01T12:04:25.113Z,24.84
2022-10-01T12:05:25.158Z,24.84
2022-10-01T12:06:27.547Z,24.84
2022-10-01T12:07:25.111Z,24.84
2022-10-01T12:08:25.263Z,24.74
2022-10-01T12:09:25.113Z,25.03
2022-10-01T12:10:25.115Z,25.03
2022-10-01T12:11:25.113Z,25.03
2022-10-01T12:12:25.113Z,24.93
2022-10-01T12:13:25.112Z,25.03
2022-10-01T12:14:25.113Z,25.03
2022-10-01T12:15:25.112Z,25.03
2022-10-01T12:16:25.204Z,25.03
2022-10-01T12:17:25.112Z,25.03
2022-10-01T12:18:25.115Z,25.03
2022-10-01T12:19:25.130Z,25.03
2022-10-01T12:20:25.115Z,25.03
2022-10-01T12:21:25.113Z,24.93
2022-10-01T12:22:25.142Z,25.03
2022-10-01T12:23:25.111Z,24.93
2022-10-01T12:24:25.112Z,24.93
2022-10-01T12:25:25.112Z,24.93
2022-10-01T12:26:25.113Z,24.93
2022-10-01T12:27:25.113Z,24.93
2022-10-01T12:28:25.156Z,25.13
2022-10-01T12:29:25.114Z,25.13
2022-10-01T12:30:25.129Z,25.13
2022-10-01T12:31:25.148Z,25.13
2022-10-01T12:32:25.114Z,25.13
2022-10-01T12:33:25.112Z,25.03
2022-10-01T12:34:25.112Z,25.03
2022-10-01T12:35:25.114Z,25.03
2022-10-01T12:36:25.114Z,25.03
2022-10-01T12:37:25.113Z,25.13
2022-10-01T12:38:25.134Z,25.03
2022-10-01T12:39:25.111Z,25.03
2022-10-01T12:40:25.114Z,24.93
2022-10-01T12:41:25.113Z,25.32
2022-10-01T12:42:25.112Z,25.13
2022-10-01T12:43:25.113Z,25.13
2022-10-01T12:44:25.113Z,25.23
2022-10-01T12:45:25.113Z,25.23
2022-10-01T12:46:25.172Z,25.13
2022-10-01T12:47:25.112Z,25.23
2022-10-01T12:48:25.114Z,25.23
2022-10-01T12:49:25.113Z,25.32
2022-10-01T12:50:25.112Z,25.32
2022-10-01T12:51:25.111Z,25.23
2022-10-01T12:52:25.112Z,25.23